createdAt,value
2022-11-28T11:14:38.662Z,1.80
2022-11-28T11:17:36.798Z,1.80
2022-11-28T11:20:35.054Z,1.70
2022-11-28T11:23:23.002Z,1.70
2022-11-28T11:26:27.701Z,1.60
2022-11-28T11:29:37.661Z,1.60
2022-11-28T11:32:30.739Z,1.60
2022-11-28T11:35:28.216Z,1.50
2022-11-28T11:38:22.902Z,1.60
2022-11-28T11:41:30.055Z,1.70
2022-11-28T11:44:15.773Z,1.70
2022-11-28T11:47:10.147Z,1.60
2022-11-28T11:50:05.848Z,1.70
2022-11-28T11:53:20.926Z,1.70
2022-11-28T11:56:06.776Z,1.70
2022-11-28T11:58:55.996Z,1.70
2022-11-28T12:01:46.068Z,1.80
2022-11-28T12:04:45.887Z,1.80
2022-11-28T12:07:56.192Z,1.80
2022-11-28T12:10:55.033Z,1.80
2022-11-28T12:13:40.817Z,1.80
2022-11-28T12:17:25.682Z,1.90
2022-11-28T12:21:00.208Z,1.90
2022-11-28T12:24:14.063Z,1.90
2022-11-28T12:27:34.665Z,1.90
2022-11-28T14:43:48.892Z,1.10
2022-11-28T14:46:35.110Z,1.30
2022-11-28T14:49:22.280Z,1.30
2022-11-28T14:52:38.479Z,1.20
2022-11-28T14:55:25.010Z,1.20
2022-11-28T14:58:16.530Z,1.20
2022-11-28T15:01:10.288Z,1.20
2022-11-28T15:08:15.501Z,1.20
2022-11-28T15:11:25.642Z,1.10
2022-11-28T15:14:22.776Z,1.10
2022-11-28T15:17:13.964Z,1.10
2022-11-28T15:20:27.599Z,1.10
2022-11-28T15:23:32.563Z,1.20
2022-11-28T15:26:30.447Z,1.20
2022-11-28T15:29:20.353Z,1.20
2022-11-28T15:32:06.769Z,1.20
2022-11-28T15:35:10.928Z,1.20
2022-11-28T15:37:58.680Z,1.20
2022-11-28T15:40:51.869Z,1.20
2022-11-28T15:43:43.523Z,1.20
2022-11-28T15:46:34.540Z,1.20
2022-11-28T15:49:32.305Z,1.20
2022-11-28T15:52:18.121Z,1.20
2022-11-28T15:55:17.201Z,1.20
2022-11-28T15:58:23.485Z,1.20
2022-11-28T16:01:26.585Z,1.20
2022-11-28T16:04:17.307Z,1.10
2022-11-28T16:07:03.020Z,1.10
2022-11-28T16:09:59.827Z,1.10
2022-11-28T16:12:46.034Z,1.10
2022-11-28T16:15:31.910Z,1.10
2022-11-28T16:18:18.219Z,1.10
2022-11-28T16:21:04.301Z,1.10
2022-11-28T16:23:49.597Z,1.20
2022-11-28T16:26:38.389Z,1.20
2022-11-28T16:29:24.489Z,1.20
2022-11-28T16:32:40.090Z,1.20
2022-11-28T16:35:35.244Z,1.20
2022-11-28T16:38:24.312Z,1.20
2022-11-28T16:41:26.174Z,1.20
2022-11-28T16:44:15.643Z,1.20
2022-11-28T16:47:01.791Z,1.20
2022-11-28T16:50:20.726Z,1.10
2022-11-28T16:53:06.604Z,1.10
2022-11-28T16:55:52.412Z,1.20
2022-11-28T16:58:37.920Z,1.20
2022-11-28T17:01:23.196Z,1.10
2022-11-28T17:04:25.296Z,1.10
2022-11-28T17:07:15.616Z,1.10
2022-11-28T17:10:01.347Z,1.20
2022-11-28T17:12:47.168Z,1.20
2022-11-28T17:15:32.882Z,1.20
2022-11-28T17:18:18.326Z,1.20
2022-11-28T17:21:03.719Z,1.20
2022-11-28T17:23:49.674Z,1.20
2022-11-28T17:26:35.075Z,1.20
2022-11-28T17:29:21.500Z,1.20
2022-11-28T17:32:12.091Z,1.30
2022-11-28T17:34:57.346Z,1.30
2022-11-28T17:37:42.963Z,1.20
2022-11-28T17:40:28.202Z,1.20
2022-11-28T17:43:21.995Z,1.20
2022-11-28T17:46:07.566Z,1.20
